EXS41FZ LPPR-EGCC
Flight info
| Callsign | EXS41FZ |
|---|---|
| Flight time | N/A |
| Altitude | 36000 |
| Route | TURON P600 ASDEB DCT KORUL DCT KOLEK DCT EBOMO DCT RUSIB DCT NOZHU DCT SHIRI DCT TOJAQ DCT EPACE DCT ACCOP DCT MOCQO P16 AXCIS |
| Aircraft | B738/M-SDE2E3FGHIRWXY/LB1 |
Departure
| Time | 2026-05-06 09:40 |
|---|---|
| Airport | Francisco de Sá Carneiro Airport (LPPR) |
Arrival
| Time | N/A |
|---|---|
| Airport | Manchester Airport (EGCC) |
| Time | Latitude | Longitude | Altitude | Speed | Heading |
|---|---|---|---|---|---|
| 2026-05-06 08:42 | 41.23770 | -8.67306 | 256 ft | 0 kts | 47° |
| 2026-05-06 09:31 | 41.23754 | -8.67329 | 256 ft | 4 kts | 47° |
| 2026-05-06 09:32 | 41.23738 | -8.67353 | 256 ft | 2 kts | 47° |
| 2026-05-06 09:32 | 41.23725 | -8.67380 | 256 ft | 4 kts | 85° |
| 2026-05-06 09:32 | 41.23731 | -8.67411 | 257 ft | 3 kts | 124° |
| 2026-05-06 09:32 | 41.23733 | -8.67416 | 256 ft | 2 kts | 125° |
| 2026-05-06 09:36 | 41.23732 | -8.67413 | 257 ft | 1 kts | 124° |
| 2026-05-06 09:36 | 41.23725 | -8.67400 | 257 ft | 2 kts | 123° |
| 2026-05-06 09:36 | 41.23708 | -8.67371 | 257 ft | 6 kts | 136° |
| 2026-05-06 09:36 | 41.23672 | -8.67336 | 257 ft | 8 kts | 152° |
| 2026-05-06 09:37 | 41.23604 | -8.67332 | 258 ft | 12 kts | 193° |
| 2026-05-06 09:37 | 41.23534 | -8.67379 | 261 ft | 11 kts | 207° |
| 2026-05-06 09:37 | 41.23458 | -8.67379 | 261 ft | 11 kts | 167° |
| 2026-05-06 09:37 | 41.23384 | -8.67365 | 261 ft | 11 kts | 186° |
| 2026-05-06 09:38 | 41.23335 | -8.67429 | 264 ft | 10 kts | 251° |
| 2026-05-06 09:38 | 41.23320 | -8.67521 | 269 ft | 10 kts | 259° |
| 2026-05-06 09:38 | 41.23306 | -8.67610 | 274 ft | 10 kts | 258° |
| 2026-05-06 09:38 | 41.23294 | -8.67697 | 276 ft | 9 kts | 270° |
| 2026-05-06 09:39 | 41.23344 | -8.67743 | 275 ft | 9 kts | 346° |
| 2026-05-06 09:39 | 41.23412 | -8.67763 | 272 ft | 11 kts | 349° |
| 2026-05-06 09:39 | 41.23516 | -8.67788 | 267 ft | 32 kts | 348° |
| 2026-05-06 09:39 | 41.24005 | -8.67915 | 249 ft | 109 kts | 348° |
| 2026-05-06 09:40 | 41.24607 | -8.68072 | 243 ft | 151 kts | 349° |
| 2026-05-06 09:40 | 41.26136 | -8.68480 | 996 ft | 170 kts | 347° |
| 2026-05-06 09:40 | 41.28466 | -8.69218 | 2576 ft | 182 kts | 348° |
| 2026-05-06 09:41 | 41.29811 | -8.69552 | 2870 ft | 209 kts | 351° |
| 2026-05-06 09:41 | 41.31317 | -8.69892 | 3110 ft | 228 kts | 350° |
| 2026-05-06 09:41 | 41.32917 | -8.70271 | 3531 ft | 237 kts | 349° |
| 2026-05-06 09:41 | 41.34547 | -8.70699 | 4137 ft | 240 kts | 349° |
| 2026-05-06 09:42 | 41.35656 | -8.70984 | 4590 ft | 240 kts | 349° |
| 2026-05-06 09:42 | 41.37301 | -8.71415 | 5199 ft | 245 kts | 349° |
| 2026-05-06 09:42 | 41.39044 | -8.71876 | 5628 ft | 261 kts | 349° |
| 2026-05-06 09:42 | 41.40813 | -8.72352 | 6496 ft | 260 kts | 349° |
| 2026-05-06 09:43 | 41.42628 | -8.72708 | 7103 ft | 266 kts | 3° |
| 2026-05-06 09:43 | 41.44433 | -8.72332 | 7856 ft | 267 kts | 11° |
| 2026-05-06 09:43 | 41.46275 | -8.71843 | 8541 ft | 272 kts | 10° |
| 2026-05-06 09:43 | 41.48150 | -8.71348 | 9196 ft | 278 kts | 10° |
| 2026-05-06 09:44 | 41.50063 | -8.70849 | 9924 ft | 281 kts | 10° |
| 2026-05-06 09:44 | 41.52000 | -8.70349 | 10437 ft | 291 kts | 10° |
| 2026-05-06 09:44 | 41.54067 | -8.69820 | 10594 ft | 313 kts | 10° |
| 2026-05-06 09:44 | 41.56270 | -8.69259 | 10833 ft | 331 kts | 10° |
| 2026-05-06 09:45 | 41.58565 | -8.68676 | 11346 ft | 339 kts | 10° |
| 2026-05-06 09:45 | 41.60895 | -8.68086 | 12010 ft | 342 kts | 10° |
| 2026-05-06 09:45 | 41.63247 | -8.67490 | 12675 ft | 346 kts | 10° |
| 2026-05-06 09:45 | 41.65631 | -8.66887 | 13337 ft | 351 kts | 10° |
| 2026-05-06 09:46 | 41.68039 | -8.66276 | 14032 ft | 354 kts | 10° |
| 2026-05-06 09:46 | 41.70474 | -8.65657 | 14658 ft | 358 kts | 9° |
| 2026-05-06 09:46 | 41.72926 | -8.65032 | 15367 ft | 360 kts | 9° |
| 2026-05-06 09:46 | 41.75400 | -8.64401 | 16000 ft | 364 kts | 9° |
| 2026-05-06 09:47 | 41.77902 | -8.63763 | 16645 ft | 368 kts | 9° |
| 2026-05-06 09:47 | 41.80424 | -8.63120 | 17322 ft | 370 kts | 9° |
| 2026-05-06 09:47 | 41.82969 | -8.62470 | 17963 ft | 374 kts | 9° |
| 2026-05-06 09:47 | 41.85538 | -8.61812 | 18575 ft | 378 kts | 9° |
| 2026-05-06 09:48 | 41.88131 | -8.61148 | 19129 ft | 381 kts | 9° |
| 2026-05-06 09:48 | 41.90741 | -8.60478 | 19729 ft | 382 kts | 9° |
| 2026-05-06 09:48 | 41.93364 | -8.59805 | 20277 ft | 386 kts | 9° |
| 2026-05-06 09:48 | 41.96013 | -8.59125 | 20800 ft | 389 kts | 9° |
| 2026-05-06 09:49 | 41.98684 | -8.58437 | 21346 ft | 392 kts | 9° |
| 2026-05-06 09:49 | 42.01370 | -8.57745 | 21868 ft | 395 kts | 9° |
| 2026-05-06 09:49 | 42.04083 | -8.57046 | 22390 ft | 398 kts | 9° |
| 2026-05-06 09:49 | 42.06815 | -8.56346 | 22895 ft | 401 kts | 8° |
| 2026-05-06 09:50 | 42.09581 | -8.55774 | 23423 ft | 403 kts | 5° |
| 2026-05-06 09:50 | 42.12376 | -8.55333 | 23882 ft | 406 kts | 4° |
| 2026-05-06 09:50 | 42.15192 | -8.54929 | 24295 ft | 408 kts | 4° |
| 2026-05-06 09:50 | 42.18025 | -8.54522 | 24709 ft | 410 kts | 4° |
| 2026-05-06 09:51 | 42.20872 | -8.54099 | 25137 ft | 413 kts | 4° |
| 2026-05-06 09:51 | 42.23733 | -8.53660 | 25535 ft | 415 kts | 5° |
| 2026-05-06 09:51 | 42.26611 | -8.53207 | 25923 ft | 417 kts | 5° |
| 2026-05-06 09:51 | 42.29504 | -8.52747 | 26291 ft | 420 kts | 5° |
| 2026-05-06 09:52 | 42.32414 | -8.52281 | 26683 ft | 422 kts | 5° |
| 2026-05-06 09:52 | 42.35338 | -8.51811 | 27070 ft | 424 kts | 5° |
| 2026-05-06 09:52 | 42.38276 | -8.51339 | 27441 ft | 426 kts | 5° |
| 2026-05-06 09:52 | 42.41232 | -8.50864 | 27799 ft | 429 kts | 5° |
| 2026-05-06 09:53 | 42.44204 | -8.50386 | 28144 ft | 431 kts | 5° |
| 2026-05-06 09:53 | 42.47192 | -8.49907 | 28493 ft | 433 kts | 5° |
| 2026-05-06 09:53 | 42.50183 | -8.49362 | 28822 ft | 437 kts | 9° |
| 2026-05-06 09:53 | 42.53125 | -8.48269 | 29129 ft | 441 kts | 19° |
| 2026-05-06 09:54 | 42.55940 | -8.46567 | 29472 ft | 444 kts | 23° |
| 2026-05-06 09:54 | 42.58728 | -8.44733 | 29790 ft | 446 kts | 24° |
| 2026-05-06 09:54 | 42.61522 | -8.42867 | 30086 ft | 449 kts | 24° |
| 2026-05-06 09:54 | 42.64333 | -8.40990 | 30337 ft | 451 kts | 24° |
| 2026-05-06 09:55 | 42.67153 | -8.39116 | 30595 ft | 452 kts | 24° |
| 2026-05-06 09:55 | 42.69983 | -8.37246 | 30949 ft | 452 kts | 24° |
| 2026-05-06 09:55 | 42.72770 | -8.35412 | 31297 ft | 451 kts | 24° |
| 2026-05-06 09:55 | 42.75609 | -8.33549 | 31461 ft | 455 kts | 23° |
| 2026-05-06 09:56 | 42.78478 | -8.31670 | 31583 ft | 460 kts | 23° |
| 2026-05-06 09:56 | 42.81368 | -8.29775 | 31760 ft | 462 kts | 23° |
| 2026-05-06 09:56 | 42.84266 | -8.27873 | 32030 ft | 462 kts | 23° |
| 2026-05-06 09:56 | 42.87157 | -8.25973 | 32374 ft | 460 kts | 23° |
| 2026-05-06 09:57 | 42.90037 | -8.24078 | 32727 ft | 459 kts | 23° |
| 2026-05-06 09:57 | 42.92911 | -8.22185 | 33016 ft | 459 kts | 23° |
| 2026-05-06 09:57 | 42.95785 | -8.20290 | 33336 ft | 458 kts | 23° |
| 2026-05-06 09:57 | 42.98651 | -8.18399 | 33654 ft | 457 kts | 23° |
| 2026-05-06 09:58 | 43.01504 | -8.16514 | 33946 ft | 456 kts | 23° |
| 2026-05-06 09:58 | 43.04368 | -8.14620 | 34193 ft | 456 kts | 23° |
| 2026-05-06 09:58 | 43.07221 | -8.12731 | 34390 ft | 457 kts | 23° |
| 2026-05-06 09:58 | 43.10083 | -8.10835 | 34581 ft | 458 kts | 23° |
| 2026-05-06 09:59 | 43.12949 | -8.08933 | 34779 ft | 458 kts | 23° |
| 2026-05-06 09:59 | 43.15815 | -8.07030 | 35004 ft | 457 kts | 23° |
| 2026-05-06 09:59 | 43.18675 | -8.05128 | 35247 ft | 457 kts | 23° |
| 2026-05-06 09:59 | 43.21534 | -8.03225 | 35421 ft | 457 kts | 23° |
| 2026-05-06 10:00 | 43.24400 | -8.01315 | 35570 ft | 459 kts | 23° |
| 2026-05-06 10:00 | 43.27271 | -7.99400 | 35759 ft | 459 kts | 23° |
| 2026-05-06 10:00 | 43.30142 | -7.97483 | 35953 ft | 459 kts | 23° |
| 2026-05-06 10:00 | 43.33016 | -7.95563 | 36068 ft | 461 kts | 23° |
| 2026-05-06 10:01 | 43.38809 | -7.91685 | 36070 ft | 464 kts | 24° |
| 2026-05-06 10:01 | 43.44580 | -7.87812 | 36062 ft | 459 kts | 24° |
| 2026-05-06 10:02 | 43.50294 | -7.83968 | 36068 ft | 456 kts | 24° |
| 2026-05-06 10:02 | 43.55939 | -7.80165 | 36068 ft | 454 kts | 24° |
| 2026-05-06 10:03 | 43.61609 | -7.76337 | 36070 ft | 453 kts | 24° |
| 2026-05-06 10:03 | 43.67270 | -7.72507 | 36068 ft | 453 kts | 24° |
| 2026-05-06 10:04 | 43.72933 | -7.68668 | 36074 ft | 454 kts | 24° |
| 2026-05-06 10:04 | 43.78611 | -7.64810 | 36084 ft | 455 kts | 24° |
| 2026-05-06 10:05 | 43.84307 | -7.60931 | 36078 ft | 457 kts | 24° |
| 2026-05-06 10:05 | 43.90029 | -7.57027 | 36070 ft | 459 kts | 24° |
| 2026-05-06 10:06 | 43.95767 | -7.53102 | 36072 ft | 460 kts | 24° |
| 2026-05-06 10:06 | 44.01505 | -7.49169 | 36075 ft | 461 kts | 24° |
| 2026-05-06 10:07 | 44.07252 | -7.45221 | 36067 ft | 461 kts | 24° |
| 2026-05-06 10:07 | 44.12996 | -7.41267 | 36068 ft | 460 kts | 24° |
| 2026-05-06 10:08 | 44.18735 | -7.37307 | 36077 ft | 460 kts | 24° |
| 2026-05-06 10:08 | 44.24469 | -7.33343 | 36063 ft | 460 kts | 24° |
| 2026-05-06 10:09 | 44.30196 | -7.29374 | 36062 ft | 459 kts | 24° |
| 2026-05-06 10:09 | 44.35916 | -7.25401 | 36059 ft | 459 kts | 24° |
| 2026-05-06 10:10 | 44.41624 | -7.21428 | 36068 ft | 459 kts | 24° |
| 2026-05-06 10:10 | 44.47333 | -7.17445 | 36064 ft | 458 kts | 25° |
| 2026-05-06 10:11 | 44.53036 | -7.13457 | 36062 ft | 458 kts | 25° |
| 2026-05-06 10:11 | 44.58733 | -7.09464 | 36061 ft | 458 kts | 25° |
| 2026-05-06 10:12 | 44.64374 | -7.05450 | 36053 ft | 458 kts | 30° |
| 2026-05-06 10:12 | 44.66789 | -7.02541 | 36059 ft | 461 kts | 51° |
| 2026-05-06 10:12 | 44.68663 | -6.98888 | 36071 ft | 460 kts | 47° |
| 2026-05-06 10:13 | 44.71066 | -6.95985 | 36067 ft | 454 kts | 27° |
| 2026-05-06 10:13 | 44.73913 | -6.94090 | 36061 ft | 453 kts | 22° |
| 2026-05-06 10:13 | 44.79589 | -6.90168 | 36060 ft | 455 kts | 26° |
| 2026-05-06 10:14 | 44.85194 | -6.85860 | 36059 ft | 457 kts | 27° |
| 2026-05-06 10:14 | 44.90700 | -6.81471 | 36057 ft | 458 kts | 27° |
| 2026-05-06 10:15 | 44.96244 | -6.77028 | 36055 ft | 458 kts | 27° |
| 2026-05-06 10:15 | 45.01791 | -6.72589 | 36051 ft | 458 kts | 27° |
| 2026-05-06 10:16 | 45.07340 | -6.68148 | 36051 ft | 458 kts | 27° |
| 2026-05-06 10:16 | 45.12886 | -6.63702 | 36052 ft | 458 kts | 27° |
| 2026-05-06 10:17 | 45.18425 | -6.59251 | 36054 ft | 458 kts | 28° |
| 2026-05-06 10:17 | 45.23960 | -6.54793 | 36069 ft | 457 kts | 28° |
| 2026-05-06 10:18 | 45.29475 | -6.50341 | 36053 ft | 456 kts | 28° |
| 2026-05-06 10:18 | 45.34979 | -6.45888 | 36051 ft | 454 kts | 28° |
| 2026-05-06 10:19 | 45.40466 | -6.41438 | 36051 ft | 454 kts | 28° |
| 2026-05-06 10:19 | 45.45944 | -6.36987 | 36048 ft | 453 kts | 27° |
| 2026-05-06 10:20 | 45.51561 | -6.32951 | 36050 ft | 452 kts | 23° |
| 2026-05-06 10:20 | 45.57268 | -6.29205 | 36049 ft | 451 kts | 23° |
| 2026-05-06 10:21 | 45.62966 | -6.25429 | 36046 ft | 452 kts | 24° |
| 2026-05-06 10:21 | 45.68645 | -6.21592 | 36047 ft | 451 kts | 24° |
| 2026-05-06 10:22 | 45.74313 | -6.17721 | 36045 ft | 451 kts | 24° |
| 2026-05-06 10:22 | 45.79969 | -6.13845 | 36044 ft | 451 kts | 24° |
| 2026-05-06 10:23 | 45.85629 | -6.09958 | 36044 ft | 451 kts | 24° |
| 2026-05-06 10:23 | 45.91288 | -6.06064 | 36048 ft | 451 kts | 24° |
| 2026-05-06 10:24 | 45.96948 | -6.02161 | 36045 ft | 451 kts | 24° |
| 2026-05-06 10:24 | 46.02608 | -5.98250 | 36047 ft | 451 kts | 24° |
| 2026-05-06 10:25 | 46.08240 | -5.94349 | 36068 ft | 454 kts | 24° |
| 2026-05-06 10:25 | 46.13954 | -5.90382 | 36044 ft | 457 kts | 24° |
| 2026-05-06 10:26 | 46.19686 | -5.86394 | 36046 ft | 458 kts | 24° |
| 2026-05-06 10:26 | 46.25435 | -5.82383 | 36044 ft | 459 kts | 24° |
| 2026-05-06 10:27 | 46.31188 | -5.78361 | 36038 ft | 459 kts | 24° |
| 2026-05-06 10:27 | 46.36937 | -5.74332 | 36037 ft | 459 kts | 24° |
| 2026-05-06 10:28 | 46.42679 | -5.70299 | 36040 ft | 458 kts | 24° |
| 2026-05-06 10:28 | 46.48418 | -5.66258 | 36040 ft | 459 kts | 24° |
| 2026-05-06 10:29 | 46.53181 | -5.62897 | 36047 ft | 458 kts | 24° |
| 2026-05-06 10:29 | 46.58899 | -5.58851 | 36034 ft | 456 kts | 24° |
| 2026-05-06 10:30 | 46.64595 | -5.54813 | 36032 ft | 454 kts | 24° |
| 2026-05-06 10:30 | 46.70272 | -5.50781 | 36029 ft | 453 kts | 24° |
| 2026-05-06 10:31 | 46.75936 | -5.46748 | 36031 ft | 453 kts | 25° |
| 2026-05-06 10:31 | 46.81593 | -5.42710 | 36030 ft | 452 kts | 25° |
| 2026-05-06 10:32 | 46.87250 | -5.38662 | 36022 ft | 454 kts | 24° |
| 2026-05-06 10:32 | 46.92928 | -5.34588 | 36037 ft | 455 kts | 24° |
| 2026-05-06 10:33 | 46.98617 | -5.30494 | 36042 ft | 457 kts | 24° |
| 2026-05-06 10:33 | 47.04284 | -5.26409 | 36022 ft | 457 kts | 25° |